Time;durP1;ratioP1;P1;durP2;ratioP2;P2;SDS_P1;SDS_P2;PMS_P1;PMS_P2;Temp;Humidity;BMP_temperature;BMP_pressure;BME280_temperature;BME280_humidity;BME280_pressure;Samples;Min_cycle;Max_cycle;Signal;HPM_P1;HPM_P2
2021/06/21 00:00:04;;;;;;;;;;;;;;;-142.75;67.07;76147.09;5060939;28;19916;-76
2021/06/21 00:02:29;;;;;;;;;;;;;;;-142.75;66.91;76149.06;5064812;28;19987;-79
2021/06/21 00:04:54;;;;;;;;;;;;;;;-142.75;66.64;76160.88;5063650;28;20317;-77
2021/06/21 00:07:20;;;;;;;;;;;;;;;-142.75;66.76;76166.78;5062403;28;19913;-77
2021/06/21 00:09:45;;;;;;;;;;;;;;;-142.75;66.58;76164.81;5062679;28;19912;-77
2021/06/21 00:12:11;;;;;;;;;;;;;;;-142.75;66.61;76172.69;5044367;28;20423;-77
2021/06/21 00:14:37;;;;;;;;;;;;;;;-142.75;66.10;76176.63;5062859;28;20012;-77
2021/06/21 00:17:02;;;;;;;;;;;;;;;-142.75;66.24;76174.66;5062556;28;20429;-77
2021/06/21 00:19:28;;;;;;;;;;;;;;;-142.75;66.21;76176.63;5062636;28;19955;-77
2021/06/21 00:21:53;;;;;;;;;;;;;;;-142.75;66.42;76176.63;5063697;28;19917;-79
2021/06/21 00:24:20;;;;;;;;;;;;;;;-142.75;66.39;76172.69;5062819;28;20336;-77
2021/06/21 00:26:46;;;;;;;;;;;;;;;-142.75;66.27;76172.69;5062186;28;19917;-77
2021/06/21 00:29:11;;;;;;;;;;;;;;;-142.75;66.16;76176.63;5044911;28;19912;-77
2021/06/21 00:31:36;;;;;;;;;;;;;;;-142.75;65.96;76182.53;5060879;28;19912;-78
2021/06/21 00:34:02;;;;;;;;;;;;;;;-142.75;66.44;76186.47;5060675;28;20012;-77
2021/06/21 00:36:27;;;;;;;;;;;;;;;-142.75;66.16;76192.38;5062596;28;19913;-77
2021/06/21 00:38:52;;;;;;;;;;;;;;;-142.75;66.53;76196.31;5062242;28;19913;-77
2021/06/21 00:41:17;;;;;;;;;;;;;;;-142.75;65.93;76200.25;5042107;28;19913;-78
2021/06/21 00:43:42;;;;;;;;;;;;;;;-142.75;65.83;76198.28;5066443;28;19917;-77
2021/06/21 00:46:08;;;;;;;;;;;;;;;-142.75;65.90;76192.38;5042685;28;19935;-78
2021/06/21 00:48:33;;;;;;;;;;;;;;;-142.75;65.53;76204.16;5063558;28;19917;-77
2021/06/21 00:50:58;;;;;;;;;;;;;;;-142.75;65.68;76208.09;5043383;28;19912;-78
2021/06/21 00:53:23;;;;;;;;;;;;;;;-142.75;66.11;76212.03;5064237;28;19934;-77
2021/06/21 00:55:49;;;;;;;;;;;;;;;-142.75;66.40;76223.84;5044506;28;19913;-77
2021/06/21 00:58:14;;;;;;;;;;;;;;;-142.75;66.46;76219.91;5045116;28;19913;-77
2021/06/21 01:00:39;;;;;;;;;;;;;;;-142.75;66.39;76215.97;5066911;28;19962;-77
2021/06/21 01:03:05;;;;;;;;;;;;;;;-142.75;66.31;76214.00;5062819;28;19963;-78
2021/06/21 01:05:34;;;;;;;;;;;;;;;-142.75;66.33;76221.88;5047383;28;19935;-77
2021/06/21 01:07:59;;;;;;;;;;;;;;;-142.75;66.27;76221.88;5066839;28;19944;-78
2021/06/21 01:10:25;;;;;;;;;;;;;;;-142.75;66.15;76231.72;5064342;28;19912;-77
2021/06/21 01:12:52;;;;;;;;;;;;;;;-142.75;66.01;76235.66;5048733;28;20428;-77
2021/06/21 01:15:26;;;;;;;;;;;;;;;-142.75;65.81;76243.53;5065797;28;20382;-77
2021/06/21 01:17:58;;;;;;;;;;;;;;;-142.75;65.41;76247.47;5066747;28;19912;-78
2021/06/21 01:20:23;;;;;;;;;;;;;;;-142.75;65.46;76251.41;5046878;28;19912;-78
2021/06/21 01:22:48;;;;;;;;;;;;;;;-142.75;65.79;76263.22;5064698;28;20400;-79
2021/06/21 01:25:20;;;;;;;;;;;;;;;-142.75;66.14;76257.31;5066773;28;20045;-76
2021/06/21 01:27:53;;;;;;;;;;;;;;;-142.75;65.43;76261.25;5065624;28;19920;-77
2021/06/21 01:30:21;;;;;;;;;;;;;;;-142.75;65.70;76271.09;5047062;28;19913;-78
2021/06/21 01:32:46;;;;;;;;;;;;;;;-142.75;65.54;76275.03;5062292;28;19919;-78
2021/06/21 01:35:28;;;;;;;;;;;;;;;-142.75;65.86;76273.06;5065287;28;19916;-77
2021/06/21 01:37:55;;;;;;;;;;;;;;;-142.75;66.09;76277.00;5065802;28;19993;-77
2021/06/21 01:40:21;;;;;;;;;;;;;;;-142.75;66.35;76284.88;5047338;28;20322;-78
2021/06/21 01:42:49;;;;;;;;;;;;;;;-142.75;66.45;76280.94;5066077;28;19921;-78
2021/06/21 01:45:16;;;;;;;;;;;;;;;-142.75;66.14;76275.03;5049144;28;19951;-78
2021/06/21 01:47:42;;;;;;;;;;;;;;;-142.75;66.58;76288.81;5063516;28;19958;-77
2021/06/21 01:50:08;;;;;;;;;;;;;;;-142.75;66.81;76290.78;5046427;28;19912;-78
2021/06/21 01:52:38;;;;;;;;;;;;;;;-142.75;67.11;76294.72;5063554;28;19978;-77
2021/06/21 01:55:05;;;;;;;;;;;;;;;-142.75;67.38;76294.72;5064700;28;20306;-78
2021/06/21 01:57:32;;;;;;;;;;;;;;;-142.75;67.53;76294.72;5065892;28;19912;-78
2021/06/21 02:00:00;;;;;;;;;;;;;;;-142.75;67.59;76300.63;5049536;28;19912;-77
2021/06/21 02:02:26;;;;;;;;;;;;;;;-142.75;68.04;76310.47;5064573;28;19943;-77
2021/06/21 02:04:53;;;;;;;;;;;;;;;-142.75;67.55;76310.47;5064937;28;20374;-77
2021/06/21 02:07:20;;;;;;;;;;;;;;;-142.75;68.15;76318.34;5061949;28;19920;-78
2021/06/21 02:09:45;;;;;;;;;;;;;;;-142.75;68.17;76326.22;5067649;28;20006;-77
2021/06/21 02:12:11;;;;;;;;;;;;;;;-142.75;68.54;76330.16;5063739;28;20020;-78
2021/06/21 02:14:37;;;;;;;;;;;;;;;-142.75;68.69;76338.03;5065168;28;19920;-78
2021/06/21 02:17:03;;;;;;;;;;;;;;;-142.75;68.91;76341.97;5064018;28;19916;-78
2021/06/21 02:19:29;;;;;;;;;;;;;;;-142.75;68.87;76332.13;5063579;28;19965;-77
2021/06/21 02:21:56;;;;;;;;;;;;;;;-142.75;69.17;76332.13;5045301;28;19924;-79
2021/06/21 02:24:22;;;;;;;;;;;;;;;-142.75;68.92;76341.97;5065942;28;20393;-79
2021/06/21 02:26:47;;;;;;;;;;;;;;;-142.75;69.78;76345.91;5045163;28;19998;-78
2021/06/21 02:29:14;;;;;;;;;;;;;;;-142.75;69.66;76347.84;5066387;28;20293;-77
2021/06/21 02:31:39;;;;;;;;;;;;;;;-142.75;69.50;76345.91;5059290;28;19913;-80
2021/06/21 02:34:05;;;;;;;;;;;;;;;-142.75;69.54;76349.81;5044937;28;19969;-80
2021/06/21 02:36:30;;;;;;;;;;;;;;;-142.75;69.57;76345.91;5047738;28;19920;-82
2021/06/21 02:38:57;;;;;;;;;;;;;;;-142.75;69.69;76349.81;5047454;28;19912;-79
2021/06/21 02:41:22;;;;;;;;;;;;;;;-142.75;68.55;76363.59;5063870;28;20401;-82
2021/06/21 02:43:47;;;;;;;;;;;;;;;-142.75;69.54;76361.63;5067101;28;19947;-79
2021/06/21 02:46:13;;;;;;;;;;;;;;;-142.75;70.00;76365.56;5067040;28;19912;-82
2021/06/21 02:48:39;;;;;;;;;;;;;;;-142.75;69.65;76379.34;5045671;28;19912;-84
2021/06/21 02:51:06;;;;;;;;;;;;;;;-142.75;70.42;76375.41;5064654;28;20451;-82
2021/06/21 02:53:35;;;;;;;;;;;;;;;-142.75;70.37;76373.44;5044171;28;19952;-80
2021/06/21 02:56:13;;;;;;;;;;;;;;;-142.75;70.39;76383.28;5061853;28;19916;-80
2021/06/21 02:58:40;;;;;;;;;;;;;;;-142.75;70.17;76397.06;5062641;28;19916;-81
2021/06/21 03:01:06;;;;;;;;;;;;;;;-142.75;70.45;76391.16;5081287;22;19924;-82
2021/06/21 03:03:34;;;;;;;;;;;;;;;-142.75;70.30;76397.06;5035485;28;19970;-80
2021/06/21 03:05:59;;;;;;;;;;;;;;;-142.75;70.50;76401.00;5053303;28;19954;-79
2021/06/21 03:08:27;;;;;;;;;;;;;;;-142.75;70.67;76399.03;5053726;28;19912;-80
2021/06/21 03:10:53;;;;;;;;;;;;;;;-142.75;70.81;76401.00;5034703;28;19938;-78
2021/06/21 03:13:20;;;;;;;;;;;;;;;-142.75;71.08;76408.88;5053755;28;19939;-78
2021/06/21 03:15:45;;;;;;;;;;;;;;;-142.75;71.04;76408.88;5035935;28;19913;-80
2021/06/21 03:18:12;;;;;;;;;;;;;;;-142.75;70.92;76416.75;5053418;28;19920;-79
2021/06/21 03:20:37;;;;;;;;;;;;;;;-142.75;71.59;76414.78;5052842;28;20336;-79
2021/06/21 03:23:04;;;;;;;;;;;;;;;-142.75;72.18;76410.84;5053148;28;19924;-82
2021/06/21 03:25:30;;;;;;;;;;;;;;;-142.75;71.55;76420.69;5035435;28;20382;-84
2021/06/21 03:27:56;;;;;;;;;;;;;;;-142.75;71.57;76414.78;5035346;28;20003;-82
2021/06/21 03:30:23;;;;;;;;;;;;;;;-142.75;72.05;76414.78;5055296;28;19913;-80
2021/06/21 03:32:51;;;;;;;;;;;;;;;-142.75;71.78;76410.84;5055362;28;19912;-78
2021/06/21 03:35:16;;;;;;;;;;;;;;;-142.75;71.82;76406.91;5055390;28;19939;-79
2021/06/21 03:37:42;;;;;;;;;;;;;;;-142.75;71.93;76408.88;5056805;28;20039;-81
2021/06/21 03:40:09;;;;;;;;;;;;;;;-142.75;71.84;76402.97;5036951;28;19970;-81
2021/06/21 03:42:34;;;;;;;;;;;;;;;-142.75;71.81;76399.03;5037769;28;20390;-80
2021/06/21 03:45:00;;;;;;;;;;;;;;;-142.75;71.72;76402.97;5056097;28;19944;-80
2021/06/21 03:47:25;;;;;;;;;;;;;;;-142.75;71.98;76397.06;5053384;28;19913;-80
2021/06/21 03:49:50;;;;;;;;;;;;;;;-142.75;71.81;76399.03;5053057;28;19912;-80
2021/06/21 03:52:16;;;;;;;;;;;;;;;-142.75;71.90;76401.00;5034993;28;19912;-80
2021/06/21 03:54:41;;;;;;;;;;;;;;;-142.75;71.98;76404.94;5035086;28;20011;-81
2021/06/21 03:57:07;;;;;;;;;;;;;;;-142.75;71.61;76424.63;5034752;28;19913;-80
2021/06/21 03:59:33;;;;;;;;;;;;;;;-142.75;72.08;76414.78;5052926;28;19912;-81
2021/06/21 04:01:58;;;;;;;;;;;;;;;-142.75;71.87;76428.56;5051888;28;19939;-82
2021/06/21 04:04:27;;;;;;;;;;;;;;;-142.75;72.21;76432.50;5052661;28;19952;-82
2021/06/21 04:06:52;;;;;;;;;;;;;;;-142.75;72.35;76424.63;5034430;28;19912;-80
2021/06/21 04:09:17;;;;;;;;;;;;;;;-142.75;72.49;76432.50;5053209;28;19912;-78
2021/06/21 04:11:44;;;;;;;;;;;;;;;-142.75;72.61;76424.63;5053004;28;19912;-81
2021/06/21 04:14:09;;;;;;;;;;;;;;;-142.75;72.83;76420.69;5052854;28;20016;-80
2021/06/21 04:16:34;;;;;;;;;;;;;;;-142.75;72.81;76416.75;5052591;28;19964;-81
2021/06/21 04:19:00;;;;;;;;;;;;;;;-142.75;73.20;76410.84;5053931;28;20417;-82
2021/06/21 04:21:25;;;;;;;;;;;;;;;-142.75;73.21;76408.88;5052941;28;19930;-79
2021/06/21 04:23:50;;;;;;;;;;;;;;;-142.75;73.49;76412.81;5053489;28;19923;-83
2021/06/21 04:26:16;;;;;;;;;;;;;;;-142.75;73.22;76418.72;5034535;28;19919;-82
2021/06/21 04:28:41;;;;;;;;;;;;;;;-142.75;72.70;76420.69;5051903;28;19919;-82
2021/06/21 04:31:06;;;;;;;;;;;;;;;-142.75;72.78;76420.69;5034316;28;19952;-81
2021/06/21 04:33:31;;;;;;;;;;;;;;;-142.75;72.96;76420.69;5034985;28;19917;-83
2021/06/21 04:35:57;;;;;;;;;;;;;;;-142.75;72.99;76424.63;5035759;28;19935;-80
2021/06/21 04:38:23;;;;;;;;;;;;;;;-142.75;73.09;76432.50;5053082;28;19913;-82
2021/06/21 04:40:48;;;;;;;;;;;;;;;-142.75;73.00;76434.47;5055054;28;19948;-81
2021/06/21 04:43:14;;;;;;;;;;;;;;;-142.75;73.16;76434.47;5056872;28;19947;-81
2021/06/21 04:45:39;;;;;;;;;;;;;;;-142.75;73.25;76444.31;5057026;28;19920;-80
2021/06/21 04:48:05;;;;;;;;;;;;;;;-142.75;73.41;76444.31;5059307;28;19920;-80
2021/06/21 04:50:31;;;;;;;;;;;;;;;-142.75;73.55;76444.31;5038003;28;19924;-81
2021/06/21 04:52:56;;;;;;;;;;;;;;;-142.75;73.60;76444.31;5039040;28;19912;-80
2021/06/21 04:55:23;;;;;;;;;;;;;;;-142.75;73.46;76448.25;5039003;28;19912;-81
2021/06/21 04:57:48;;;;;;;;;;;;;;;-142.75;73.62;76446.28;5055899;28;19936;-80
2021/06/21 05:00:14;;;;;;;;;;;;;;;-142.75;73.65;76450.22;5038296;28;20398;-83
2021/06/21 05:02:40;;;;;;;;;;;;;;;-142.75;73.49;76454.16;5037985;28;19921;-82
2021/06/21 05:05:06;;;;;;;;;;;;;;;-142.75;73.68;76450.22;5038504;28;19913;-81
2021/06/21 05:07:31;;;;;;;;;;;;;;;-142.75;73.78;76442.34;5038992;28;20277;-81
2021/06/21 05:09:56;;;;;;;;;;;;;;;-142.75;73.67;76444.31;5040453;28;19921;-82
2021/06/21 05:12:22;;;;;;;;;;;;;;;-142.75;73.69;76448.25;5058935;28;19912;-81
2021/06/21 05:14:47;;;;;;;;;;;;;;;-142.75;73.71;76450.22;5038610;28;20330;-81
2021/06/21 05:17:12;;;;;;;;;;;;;;;-142.75;73.81;76452.19;5055358;28;19912;-81
2021/06/21 05:19:38;;;;;;;;;;;;;;;-142.75;73.86;76450.22;5039326;28;19913;-80
2021/06/21 05:22:06;;;;;;;;;;;;;;;-142.75;73.89;76450.22;5037314;28;19923;-82
2021/06/21 05:24:31;;;;;;;;;;;;;;;-142.75;74.01;76456.13;5057308;28;20413;-80
2021/06/21 05:26:57;;;;;;;;;;;;;;;-142.75;74.06;76464.00;5056459;28;19913;-81
2021/06/21 05:29:22;;;;;;;;;;;;;;;-142.75;74.02;76465.97;5041361;28;20374;-81
2021/06/21 05:31:47;;;;;;;;;;;;;;;-142.75;74.16;76460.06;5038421;28;20399;-81
2021/06/21 05:34:12;;;;;;;;;;;;;;;-142.75;74.12;76456.13;5038294;28;19912;-81
2021/06/21 05:36:37;;;;;;;;;;;;;;;-142.75;74.25;76456.13;5036698;28;19921;-82
2021/06/21 05:39:03;;;;;;;;;;;;;;;-142.75;74.41;76464.00;5055513;28;20366;-80
2021/06/21 05:41:28;;;;;;;;;;;;;;;-142.75;74.41;76458.09;5056575;28;19919;-80
2021/06/21 05:43:54;;;;;;;;;;;;;;;-142.75;74.27;76460.06;5056908;28;19999;-80
2021/06/21 05:46:19;;;;;;;;;;;;;;;-142.75;74.48;76460.06;5057136;28;19912;-81
2021/06/21 05:48:44;;;;;;;;;;;;;;;-142.75;74.42;76460.06;5057590;28;19917;-81
2021/06/21 05:51:09;;;;;;;;;;;;;;;-142.75;74.26;76464.00;5037696;28;20370;-82
2021/06/21 05:53:34;;;;;;;;;;;;;;;-142.75;74.32;76460.06;5057399;28;19920;-80
2021/06/21 05:56:00;;;;;;;;;;;;;;;-142.75;74.44;76460.06;5039871;28;19916;-81
2021/06/21 05:58:25;;;;;;;;;;;;;;;-142.75;74.31;76464.00;5039533;28;19920;-80
2021/06/21 06:00:50;;;;;;;;;;;;;;;-142.75;74.32;76465.97;5056714;28;19980;-80
2021/06/21 06:03:16;;;;;;;;;;;;;;;-142.75;74.27;76467.94;5038983;28;20426;-79
2021/06/21 06:05:41;;;;;;;;;;;;;;;-142.75;74.25;76471.88;5057158;28;19919;-83
2021/06/21 06:08:06;;;;;;;;;;;;;;;-142.75;74.29;76475.81;5056524;28;19999;-79
2021/06/21 06:10:31;;;;;;;;;;;;;;;-142.75;74.27;76469.91;5056656;28;19919;-79
2021/06/21 06:12:57;;;;;;;;;;;;;;;-142.75;74.20;76471.88;5056268;28;20278;-80
2021/06/21 06:15:23;;;;;;;;;;;;;;;-142.75;74.13;76467.94;5037807;28;20397;-79
2021/06/21 06:17:48;;;;;;;;;;;;;;;-142.75;74.14;76467.94;5037600;28;19919;-80
2021/06/21 06:20:14;;;;;;;;;;;;;;;-142.75;73.92;76477.78;5054985;28;19912;-81
2021/06/21 06:22:40;;;;;;;;;;;;;;;-142.75;74.22;76475.81;5055756;28;19962;-80
2021/06/21 06:25:05;;;;;;;;;;;;;;;-142.75;74.33;76475.81;5036321;28;19913;-79
2021/06/21 06:27:31;;;;;;;;;;;;;;;-142.75;74.20;76477.78;5053846;28;19935;-80
2021/06/21 06:29:56;;;;;;;;;;;;;;;-142.75;74.14;76471.88;5053418;28;19912;-82
2021/06/21 06:32:21;;;;;;;;;;;;;;;-142.75;74.14;76479.75;5035614;28;21389;-81
2021/06/21 06:34:46;;;;;;;;;;;;;;;-142.75;73.79;76477.78;5036531;28;19913;-81
2021/06/21 06:37:11;;;;;;;;;;;;;;;-142.75;73.89;76479.75;5054515;28;19913;-83
2021/06/21 06:39:37;;;;;;;;;;;;;;;-142.75;73.89;76479.75;5054294;28;19948;-82
2021/06/21 06:42:02;;;;;;;;;;;;;;;-142.75;73.96;76489.59;5054365;28;19920;-81
2021/06/21 06:44:28;;;;;;;;;;;;;;;-142.75;74.12;76499.44;5036169;28;19928;-80
2021/06/21 06:46:53;;;;;;;;;;;;;;;-142.75;74.18;76503.38;5035729;28;19923;-80
2021/06/21 06:49:18;;;;;;;;;;;;;;;-142.75;74.38;76505.34;5053410;28;20445;-80
2021/06/21 06:51:50;;;;;;;;;;;;;;;-142.75;74.33;76507.31;5052357;28;19916;-80
2021/06/21 06:59:36;;;;;;;;;;;;;;;-142.75;74.35;76519.13;5052725;28;19999;-81
2021/06/21 07:02:04;;;;;;;;;;;;;;;-142.75;74.32;76521.09;5052362;28;20012;-81
2021/06/21 07:04:30;;;;;;;;;;;;;;;-142.75;74.23;76534.84;5036934;28;20038;-81
2021/06/21 07:06:57;;;;;;;;;;;;;;;-142.75;74.20;76530.91;5052915;28;19913;-80
2021/06/21 07:09:24;;;;;;;;;;;;;;;-142.75;74.29;76536.84;5053234;28;19958;-81
2021/06/21 07:11:51;;;;;;;;;;;;;;;-142.75;74.26;76544.69;5034483;28;19921;-81
2021/06/21 07:14:16;;;;;;;;;;;;;;;-142.75;74.31;76544.69;5034992;28;19988;-82
2021/06/21 07:16:42;;;;;;;;;;;;;;;-142.75;74.47;76544.69;5034656;28;20453;-83
2021/06/21 07:19:07;;;;;;;;;;;;;;;-142.75;74.36;76556.50;5053467;28;20370;-79
2021/06/21 07:21:32;;;;;;;;;;;;;;;-142.75;73.58;76572.25;5054325;28;20392;-80
2021/06/21 07:23:57;;;;;;;;;;;;;;;-142.75;74.04;76568.31;5053354;28;19919;-81
2021/06/21 07:26:23;;;;;;;;;;;;;;;-142.75;74.30;76562.41;5054067;28;19917;-83
2021/06/21 07:28:49;;;;;;;;;;;;;;;-142.75;74.53;76554.53;5052682;28;20293;-80
2021/06/21 07:31:14;;;;;;;;;;;;;;;-142.75;74.09;76556.50;5054693;28;19912;-80
2021/06/21 07:33:39;;;;;;;;;;;;;;;-142.75;74.11;76554.53;5035896;28;20562;-80
2021/06/21 07:36:05;;;;;;;;;;;;;;;-142.75;74.11;76554.53;5054016;28;19959;-82
2021/06/21 07:38:30;;;;;;;;;;;;;;;-142.75;74.11;76552.56;5054184;28;21312;-80
2021/06/21 07:40:56;;;;;;;;;;;;;;;-142.75;74.07;76534.84;5053029;28;20433;-80
2021/06/21 07:43:21;;;;;;;;;;;;;;;-142.75;73.89;76540.75;5053679;28;19916;-80
2021/06/21 07:45:47;;;;;;;;;;;;;;;-142.75;73.92;76538.78;5035199;28;19942;-80
2021/06/21 07:48:13;;;;;;;;;;;;;;;-142.75;73.74;76534.84;5052887;28;20369;-82
2021/06/21 07:50:38;;;;;;;;;;;;;;;-142.75;73.68;76528.97;5035752;28;19923;-79
2021/06/21 07:53:06;;;;;;;;;;;;;;;-142.75;73.42;76527.00;5054067;28;19913;-77
2021/06/21 07:55:31;;;;;;;;;;;;;;;-142.75;73.63;76515.19;5055192;28;20366;-79
2021/06/21 07:57:56;;;;;;;;;;;;;;;-142.75;73.42;76511.25;5053772;28;19912;-80
2021/06/21 08:00:26;;;;;;;;;;;;;;;-142.75;73.55;76511.25;5035810;28;19919;-79
2021/06/21 08:02:51;;;;;;;;;;;;;;;-142.75;73.36;76499.44;5037662;28;19917;-81
2021/06/21 08:05:17;;;;;;;;;;;;;;;-142.75;73.18;76509.28;5036604;28;19979;-79
2021/06/21 08:07:42;;;;;;;;;;;;;;;-142.75;73.13;76505.34;5038116;28;19913;-79
2021/06/21 08:10:08;;;;;;;;;;;;;;;-142.75;72.82;76519.13;5037290;28;19955;-82
2021/06/21 08:12:33;;;;;;;;;;;;;;;-142.75;72.83;76530.91;5054321;28;20395;-80
2021/06/21 08:14:58;;;;;;;;;;;;;;;-142.75;72.76;76536.84;5037003;28;20318;-80
2021/06/21 08:17:23;;;;;;;;;;;;;;;-142.75;72.88;76538.78;5054025;28;19912;-80
2021/06/21 08:19:50;;;;;;;;;;;;;;;-142.75;72.80;76540.75;5054057;28;19970;-87
2021/06/21 08:22:16;;;;;;;;;;;;;;;-142.75;73.00;76542.72;5054484;28;19917;-80
2021/06/21 08:24:42;;;;;;;;;;;;;;;-142.75;73.25;76540.75;5036818;28;19919;-80
2021/06/21 08:27:07;;;;;;;;;;;;;;;-142.75;73.45;76542.72;5056274;28;19951;-81
2021/06/21 08:29:33;;;;;;;;;;;;;;;-142.75;73.37;76546.66;5056000;28;19913;-80
2021/06/21 08:31:58;;;;;;;;;;;;;;;-142.75;73.10;76550.59;5037382;28;19912;-79
2021/06/21 08:34:23;;;;;;;;;;;;;;;-142.75;73.18;76550.59;5040272;28;19921;-80
2021/06/21 08:36:48;;;;;;;;;;;;;;;-142.75;73.41;76558.47;5036753;28;19926;-80
2021/06/21 08:39:13;;;;;;;;;;;;;;;-142.75;73.60;76560.44;5038486;28;19955;-81
2021/06/21 08:41:39;;;;;;;;;;;;;;;-142.75;73.48;76572.25;5036205;28;19913;-81
2021/06/21 08:44:04;;;;;;;;;;;;;;;-142.75;73.62;76570.28;5036716;28;19920;-81
2021/06/21 08:46:29;;;;;;;;;;;;;;;-142.75;73.56;76574.22;5054701;28;19917;-81
2021/06/21 08:48:55;;;;;;;;;;;;;;;-142.75;73.93;76572.25;5035578;28;19912;-81
2021/06/21 08:51:21;;;;;;;;;;;;;;;-142.75;73.74;76566.34;5035661;28;19912;-82
2021/06/21 08:53:46;;;;;;;;;;;;;;;-142.75;73.53;76564.38;5035206;28;19971;-81
2021/06/21 08:56:11;;;;;;;;;;;;;;;-142.75;73.47;76566.34;5035126;28;19948;-80
2021/06/21 08:58:37;;;;;;;;;;;;;;;-142.75;73.63;76556.50;5052969;28;19919;-81
2021/06/21 09:01:02;;;;;;;;;;;;;;;-142.75;73.45;76554.53;5059098;22;19928;-82
2021/06/21 09:03:30;;;;;;;;;;;;;;;-142.75;73.44;76554.53;5048613;28;19933;-79
2021/06/21 09:05:56;;;;;;;;;;;;;;;-142.75;73.40;76550.59;5049482;28;19966;-83
2021/06/21 09:08:21;;;;;;;;;;;;;;;-142.75;73.35;76546.66;5049898;28;19913;-82
2021/06/21 09:10:50;;;;;;;;;;;;;;;-142.75;73.18;76534.84;5051100;28;20441;-83
2021/06/21 09:13:16;;;;;;;;;;;;;;;-142.75;72.91;76536.84;5045293;28;20011;-82
2021/06/21 09:15:42;;;;;;;;;;;;;;;-142.75;72.66;76542.72;5039890;28;19913;-82
2021/06/21 09:18:27;;;;;;;;;;;;;;;-142.75;72.75;76536.84;5039670;28;19913;-84
2021/06/21 09:21:10;;;;;;;;;;;;;;;-142.75;72.69;76540.75;5040061;28;20003;-82
2021/06/21 09:23:36;;;;;;;;;;;;;;;-142.75;72.62;76544.69;5043649;28;20513;-81
2021/06/21 09:26:19;;;;;;;;;;;;;;;-142.75;72.30;76550.59;5036669;28;19967;-81
2021/06/21 09:28:45;;;;;;;;;;;;;;;-142.75;72.69;76556.50;5040037;28;20321;-82
2021/06/21 09:31:10;;;;;;;;;;;;;;;-142.75;72.70;76554.53;5040279;28;19921;-83
2021/06/21 09:33:36;;;;;;;;;;;;;;;-142.75;72.51;76566.34;5040783;28;19913;-81
2021/06/21 09:36:01;;;;;;;;;;;;;;;-142.75;72.54;76570.28;5041036;28;19919;-82
2021/06/21 09:38:27;;;;;;;;;;;;;;;-142.75;72.64;76568.31;5044888;28;19920;-82
2021/06/21 09:40:53;;;;;;;;;;;;;;;-142.75;72.60;76568.31;5042308;28;19967;-83
2021/06/21 09:43:35;;;;;;;;;;;;;;;-142.75;72.51;76574.22;5044548;28;20267;-83
2021/06/21 09:46:00;;;;;;;;;;;;;;;-142.75;72.42;76582.09;5043751;28;19916;-83
2021/06/21 09:48:33;;;;;;;;;;;;;;;-142.75;72.63;76576.19;5043898;28;19913;-83
2021/06/21 09:50:58;;;;;;;;;;;;;;;-142.75;72.42;76582.09;5047264;28;19937;-84
2021/06/21 09:53:24;;;;;;;;;;;;;;;-142.75;72.48;76584.06;5045873;28;19917;-84
2021/06/21 09:55:49;;;;;;;;;;;;;;;-142.75;72.73;76576.19;5043227;28;19913;-84
2021/06/21 09:58:16;;;;;;;;;;;;;;;-142.75;72.94;76572.25;5044975;28;20317;-83
2021/06/21 10:00:43;;;;;;;;;;;;;;;-142.75;72.68;76578.16;5042337;28;19935;-81
2021/06/21 10:03:13;;;;;;;;;;;;;;;-142.75;72.49;76589.97;5038528;28;19927;-81
2021/06/21 10:05:41;;;;;;;;;;;;;;;-142.75;71.48;76617.53;5046952;28;19912;-82
2021/06/21 10:08:07;;;;;;;;;;;;;;;-142.75;71.90;76629.34;5047885;28;20289;-80
2021/06/21 10:10:33;;;;;;;;;;;;;;;-142.75;72.27;76635.25;5047681;28;19913;-80
2021/06/21 10:12:59;;;;;;;;;;;;;;;-142.75;72.51;76629.34;5045317;28;19942;-80
2021/06/21 10:15:24;;;;;;;;;;;;;;;-142.75;72.65;76615.56;5042611;28;19913;-83
2021/06/21 10:17:49;;;;;;;;;;;;;;;-142.75;72.89;76607.69;5034763;28;19921;-83
2021/06/21 10:20:14;;;;;;;;;;;;;;;-142.75;72.65;76593.91;5038021;28;19913;-84
2021/06/21 10:22:40;;;;;;;;;;;;;;;-142.75;72.77;76582.09;5048388;28;19921;-81
2021/06/21 10:25:07;;;;;;;;;;;;;;;-142.75;72.61;76570.28;5044591;28;19913;-84
2021/06/21 10:27:32;;;;;;;;;;;;;;;-142.75;72.37;76554.53;5039036;28;20517;-81
2021/06/21 10:29:58;;;;;;;;;;;;;;;-142.75;71.61;76558.47;5044333;28;19935;-80
2021/06/21 10:32:24;;;;;;;;;;;;;;;-142.75;71.74;76554.53;5038938;28;20305;-81
2021/06/21 10:34:50;;;;;;;;;;;;;;;-142.75;71.42;76550.59;5042873;28;19966;-81
2021/06/21 10:37:18;;;;;;;;;;;;;;;-142.75;71.41;76556.50;5040437;28;19995;-82
2021/06/21 10:39:48;;;;;;;;;;;;;;;-142.75;71.13;76544.69;5032003;28;20428;-82
2021/06/21 10:42:15;;;;;;;;;;;;;;;-142.75;71.21;76540.75;5040184;28;19917;-83
2021/06/21 10:44:41;;;;;;;;;;;;;;;-142.75;71.21;76542.72;5042353;28;19920;-82
2021/06/21 10:47:25;;;;;;;;;;;;;;;-142.75;71.45;76536.84;5046900;28;19955;-82
2021/06/21 10:50:05;;;;;;;;;;;;;;;-142.75;71.48;76534.84;5043304;28;20381;-81
2021/06/21 10:52:32;;;;;;;;;;;;;;;-142.75;70.79;76546.66;5048329;28;19919;-81
2021/06/21 10:55:16;;;;;;;;;;;;;;;-142.75;70.79;76548.63;5042069;28;19978;-82
2021/06/21 10:57:41;;;;;;;;;;;;;;;-142.75;70.76;76542.72;5043867;28;19913;-80
2021/06/21 11:00:11;;;;;;;;;;;;;;;-142.75;70.75;76546.66;5041052;28;19961;-83
2021/06/21 11:02:36;;;;;;;;;;;;;;;-142.75;70.83;76554.53;5043208;28;20317;-84
2021/06/21 11:05:01;;;;;;;;;;;;;;;-142.75;71.05;76550.59;5041926;28;19913;-82
2021/06/21 11:07:27;;;;;;;;;;;;;;;-142.75;70.68;76550.59;5040656;28;20289;-82
2021/06/21 11:09:57;;;;;;;;;;;;;;;-142.75;70.49;76552.56;5040131;28;19928;-83
2021/06/21 11:12:23;;;;;;;;;;;;;;;-142.75;70.64;76550.59;5045579;28;20513;-82
2021/06/21 11:15:04;;;;;;;;;;;;;;;-142.75;71.15;76546.66;5040424;28;20011;-82
2021/06/21 11:17:30;;;;;;;;;;;;;;;-142.75;70.61;76546.66;5046749;28;20405;-84
2021/06/21 11:19:56;;;;;;;;;;;;;;;-142.75;70.40;76544.69;5042571;28;19912;-81
2021/06/21 11:22:41;;;;;;;;;;;;;;;-142.75;70.06;76544.69;5042073;28;19916;-81
2021/06/21 11:25:23;;;;;;;;;;;;;;;-142.75;70.22;76536.84;5043443;28;19920;-82
2021/06/21 11:27:48;;;;;;;;;;;;;;;-142.75;70.39;76511.25;5041727;28;20026;-81
2021/06/21 11:30:24;;;;;;;;;;;;;;;-142.75;69.75;76495.50;5039968;28;20397;-81
2021/06/21 11:33:09;;;;;;;;;;;;;;;-142.75;69.41;76462.03;5041357;28;20291;-83
2021/06/21 11:35:56;;;;;;;;;;;;;;;-142.75;68.98;76420.69;5043181;28;19920;-81
2021/06/21 11:38:21;;;;;;;;;;;;;;;-142.75;68.73;76377.38;5044700;28;19920;-83
2021/06/21 11:40:47;;;;;;;;;;;;;;;-142.75;68.33;76324.25;5048543;28;19913;-84
2021/06/21 11:43:14;;;;;;;;;;;;;;;-142.75;67.06;76286.84;5045048;28;19924;-82
2021/06/21 11:45:51;;;;;;;;;;;;;;;-142.75;65.95;76269.13;5049265;28;19913;-84
2021/06/21 11:48:20;;;;;;;;;;;;;;;-142.75;64.35;76263.22;5050754;28;19919;-84
2021/06/21 11:50:45;;;;;;;;;;;;;;;-142.75;65.44;76239.59;5048477;28;19913;-82
2021/06/21 11:53:10;;;;;;;;;;;;;;;-142.75;65.15;76204.16;5047715;28;19942;-82
2021/06/21 11:55:36;;;;;;;;;;;;;;;-142.75;64.35;76204.16;5040084;28;19913;-81
2021/06/21 11:58:01;;;;;;;;;;;;;;;-142.75;63.88;76204.16;5048991;28;19912;-82
2021/06/21 12:00:31;;;;;;;;;;;;;;;-142.75;62.94;76202.19;5042624;28;19970;-79
2021/06/21 12:03:03;;;;;;;;;;;;;;;-142.75;62.88;76219.91;5044129;28;19921;-82
2021/06/21 12:05:28;;;;;;;;;;;;;;;-142.75;63.32;76229.75;5043171;28;19913;-81
2021/06/21 12:07:53;;;;;;;;;;;;;;;-142.75;62.83;76229.75;5040827;28;19917;-80
2021/06/21 12:10:20;;;;;;;;;;;;;;;-142.75;62.24;76237.63;5045661;28;19913;-81
2021/06/21 12:12:46;;;;;;;;;;;;;;;-142.75;63.26;76225.81;5045312;28;19958;-81
2021/06/21 12:15:13;;;;;;;;;;;;;;;-142.75;62.30;76210.06;5047628;28;19920;-83
2021/06/21 12:17:39;;;;;;;;;;;;;;;-142.75;62.71;76188.44;5042962;28;19994;-83
2021/06/21 12:20:04;;;;;;;;;;;;;;;-142.75;62.20;76184.50;5037914;28;19913;-82
2021/06/21 12:22:29;;;;;;;;;;;;;;;-142.75;62.06;76160.88;5042281;28;19917;-82
2021/06/21 12:24:54;;;;;;;;;;;;;;;-142.75;62.18;76164.81;5043713;28;19927;-85
2021/06/21 12:27:21;;;;;;;;;;;;;;;-142.75;61.39;76168.75;5039335;28;19913;-80
2021/06/21 12:29:46;;;;;;;;;;;;;;;-142.75;60.81;76176.63;5041897;28;19947;-79